createdAt,value
2018-08-28T00:00:06.168Z,23.50
2018-08-28T00:02:34.670Z,23.50
2018-08-28T00:05:03.416Z,23.40
2018-08-28T00:07:31.935Z,23.40
2018-08-28T00:10:00.371Z,23.30
2018-08-28T00:12:28.763Z,23.30
2018-08-28T00:14:57.291Z,23.40
2018-08-28T00:17:25.666Z,23.30
2018-08-28T00:19:54.117Z,23.20
2018-08-28T00:22:22.530Z,23.20
2018-08-28T00:24:51.139Z,23.20
2018-08-28T00:27:19.811Z,23.10
2018-08-28T00:29:48.222Z,23.10
2018-08-28T00:32:16.638Z,23.10
2018-08-28T00:34:45.106Z,23.00
2018-08-28T00:37:13.487Z,23.10
2018-08-28T00:39:41.839Z,23.00
2018-08-28T00:42:10.208Z,23.00
2018-08-28T00:44:38.671Z,22.90
2018-08-28T00:47:07.095Z,22.90
2018-08-28T00:49:35.551Z,22.90
2018-08-28T00:52:04.062Z,22.90
2018-08-28T00:54:32.251Z,22.80
2018-08-28T00:57:00.754Z,22.70
2018-08-28T00:59:29.247Z,22.70
2018-08-28T01:01:57.998Z,22.70
2018-08-28T01:04:26.345Z,22.70
2018-08-28T01:06:55.155Z,22.60
2018-08-28T01:09:23.461Z,22.60
2018-08-28T01:11:52.335Z,22.70
2018-08-28T01:14:20.739Z,22.60
2018-08-28T01:16:49.182Z,22.60
2018-08-28T01:19:17.651Z,22.60
2018-08-28T01:21:45.966Z,22.60
2018-08-28T01:24:14.322Z,22.50
2018-08-28T01:26:42.787Z,22.50
2018-08-28T01:29:11.164Z,22.50
2018-08-28T01:31:39.596Z,22.50
2018-08-28T01:34:08.022Z,22.40
2018-08-28T01:36:36.478Z,22.40
2018-08-28T01:39:05.578Z,22.30
2018-08-28T01:41:34.221Z,22.30
2018-08-28T01:44:02.612Z,22.30
2018-08-28T01:46:31.006Z,22.30
2018-08-28T01:48:59.515Z,22.20
2018-08-28T01:51:28.171Z,22.20
2018-08-28T01:53:56.541Z,22.20
2018-08-28T01:56:24.891Z,22.20
2018-08-28T01:58:53.334Z,22.20
2018-08-28T02:01:21.719Z,22.20
2018-08-28T02:03:50.087Z,22.20
2018-08-28T02:06:18.483Z,22.10
2018-08-28T02:08:47.133Z,22.00
2018-08-28T02:11:15.863Z,22.10
2018-08-28T02:13:44.312Z,22.00
2018-08-28T02:16:12.935Z,22.10
2018-08-28T02:18:41.488Z,22.00
2018-08-28T02:21:11.807Z,22.00
2018-08-28T02:23:40.304Z,22.00
2018-08-28T02:26:10.611Z,21.90
2018-08-28T02:28:38.927Z,21.90
2018-08-28T02:31:07.470Z,21.90
2018-08-28T02:33:36.105Z,21.80
2018-08-28T02:36:04.638Z,21.80
2018-08-28T02:38:33.242Z,21.80
2018-08-28T02:41:02.011Z,21.80
2018-08-28T02:43:30.620Z,21.80
2018-08-28T02:45:58.974Z,21.70
2018-08-28T02:48:27.742Z,21.70
2018-08-28T02:50:56.363Z,21.60
2018-08-28T02:53:25.064Z,21.60
2018-08-28T02:55:53.379Z,21.60
2018-08-28T02:58:21.927Z,21.50
2018-08-28T03:00:50.413Z,21.50
2018-08-28T03:03:19.028Z,21.50
2018-08-28T03:05:47.331Z,21.60
2018-08-28T03:08:15.969Z,21.50
2018-08-28T03:10:44.719Z,21.50
2018-08-28T03:13:13.546Z,21.50
2018-08-28T03:15:42.428Z,21.50
2018-08-28T03:18:11.004Z,21.40
2018-08-28T03:20:39.630Z,21.30
2018-08-28T03:23:08.514Z,21.30
2018-08-28T03:25:37.311Z,21.20
2018-08-28T03:28:05.971Z,21.20
2018-08-28T03:30:34.807Z,21.30
2018-08-28T03:33:03.210Z,21.30
2018-08-28T03:35:31.565Z,21.30
2018-08-28T03:37:59.923Z,21.30
2018-08-28T03:40:28.343Z,21.30
2018-08-28T03:42:56.650Z,21.20
2018-08-28T03:45:25.095Z,21.20
2018-08-28T03:47:53.442Z,21.20
2018-08-28T03:50:22.254Z,21.10
2018-08-28T03:52:50.644Z,21.00
2018-08-28T03:55:19.571Z,21.00
2018-08-28T03:57:47.954Z,21.00
2018-08-28T04:00:16.237Z,21.00
2018-08-28T04:02:44.558Z,20.90
2018-08-28T04:05:12.988Z,20.90
2018-08-28T04:07:41.610Z,20.90
2018-08-28T04:10:10.200Z,20.90
2018-08-28T04:12:38.627Z,20.90
2018-08-28T04:15:07.203Z,20.80
2018-08-28T04:17:41.880Z,20.80
2018-08-28T04:20:10.330Z,20.80
2018-08-28T04:22:39.112Z,20.80
2018-08-28T04:25:07.543Z,20.80
2018-08-28T04:27:36.279Z,20.80
2018-08-28T04:30:05.109Z,20.80
2018-08-28T04:32:33.615Z,20.80
2018-08-28T04:35:02.343Z,20.70
2018-08-28T04:37:30.954Z,20.70
2018-08-28T04:39:59.787Z,20.70
2018-08-28T04:42:28.171Z,20.70
2018-08-28T04:44:56.846Z,20.70
2018-08-28T04:47:25.631Z,20.60
2018-08-28T04:49:54.655Z,20.60
2018-08-28T04:52:22.918Z,20.70
2018-08-28T04:54:51.616Z,20.60
2018-08-28T04:57:20.302Z,20.60
2018-08-28T04:59:48.990Z,20.60
2018-08-28T05:02:17.818Z,20.60
2018-08-28T05:04:46.214Z,20.60
2018-08-28T05:07:15.051Z,20.50
2018-08-28T05:09:43.653Z,20.50
2018-08-28T05:12:12.055Z,20.50
2018-08-28T05:14:40.719Z,20.50
2018-08-28T05:17:09.072Z,20.40
2018-08-28T05:19:37.608Z,20.40
2018-08-28T05:22:06.147Z,20.40
2018-08-28T05:24:34.779Z,20.50
2018-08-28T05:27:03.539Z,20.40
2018-08-28T05:29:31.937Z,20.40
2018-08-28T05:32:00.354Z,20.40
2018-08-28T05:34:28.835Z,20.40
2018-08-28T05:36:57.258Z,20.40
2018-08-28T05:39:25.955Z,20.40
2018-08-28T05:41:54.418Z,20.40
2018-08-28T05:44:23.235Z,20.40
2018-08-28T05:46:51.854Z,20.30
2018-08-28T05:49:20.413Z,20.40
2018-08-28T05:51:49.107Z,20.40
2018-08-28T05:54:17.910Z,20.40
2018-08-28T05:56:46.265Z,20.40
2018-08-28T05:59:14.881Z,20.40
2018-08-28T06:01:43.313Z,20.40
2018-08-28T06:04:12.130Z,20.30
2018-08-28T06:06:40.837Z,20.30
2018-08-28T06:09:09.271Z,20.30
2018-08-28T06:11:37.811Z,20.40
2018-08-28T06:14:06.558Z,20.40
2018-08-28T06:16:35.268Z,20.40
2018-08-28T06:19:03.671Z,20.50
2018-08-28T06:21:32.054Z,20.40
2018-08-28T06:24:00.413Z,20.50
2018-08-28T06:26:28.941Z,20.50
2018-08-28T06:28:57.235Z,20.60
2018-08-28T06:31:25.576Z,20.60
2018-08-28T06:33:54.504Z,20.70
2018-08-28T06:36:23.139Z,20.70
2018-08-28T06:38:51.719Z,20.70
2018-08-28T06:41:20.061Z,20.80
2018-08-28T06:43:48.799Z,20.80
2018-08-28T06:46:17.091Z,20.90
2018-08-28T06:48:45.486Z,20.90
2018-08-28T06:51:14.866Z,20.90
2018-08-28T06:53:43.365Z,20.90
2018-08-28T06:56:13.761Z,21.00
2018-08-28T06:58:42.274Z,21.00
2018-08-28T07:01:13.799Z,21.00
2018-08-28T07:03:42.281Z,21.10
2018-08-28T07:06:12.690Z,21.20
2018-08-28T07:08:41.227Z,21.20
2018-08-28T07:11:14.228Z,21.20
2018-08-28T07:13:42.600Z,21.20
2018-08-28T07:16:13.110Z,21.20
2018-08-28T07:18:41.518Z,21.30
2018-08-28T07:21:12.234Z,21.40
2018-08-28T07:23:40.501Z,21.40
2018-08-28T07:26:09.022Z,21.40
2018-08-28T07:28:37.354Z,21.50
2018-08-28T07:31:05.729Z,21.50
2018-08-28T07:33:34.416Z,21.50
2018-08-28T07:36:02.825Z,21.60
2018-08-28T07:38:31.547Z,21.60
2018-08-28T07:41:00.014Z,21.60
2018-08-28T07:43:28.233Z,21.70
2018-08-28T07:45:56.875Z,21.70
2018-08-28T07:48:25.495Z,21.70
2018-08-28T07:50:54.119Z,21.80
2018-08-28T07:53:22.897Z,21.80
2018-08-28T07:55:51.218Z,21.90
2018-08-28T07:58:19.652Z,21.90
2018-08-28T08:00:48.458Z,21.90
2018-08-28T08:03:22.337Z,21.90
2018-08-28T08:05:51.809Z,22.00
2018-08-28T08:08:20.502Z,22.00
2018-08-28T08:10:49.002Z,22.10
2018-08-28T08:13:17.740Z,22.10
2018-08-28T08:15:46.358Z,22.20
2018-08-28T08:18:15.135Z,22.20
2018-08-28T08:20:44.111Z,22.30
2018-08-28T08:23:12.507Z,22.30
2018-08-28T08:25:41.456Z,22.40
2018-08-28T08:28:10.148Z,22.50
2018-08-28T08:30:38.695Z,22.50
2018-08-28T08:33:07.291Z,22.50
2018-08-28T08:35:35.591Z,22.60
2018-08-28T08:38:04.198Z,22.70
2018-08-28T08:40:33.006Z,22.80
2018-08-28T08:43:01.488Z,22.90
2018-08-28T08:45:29.903Z,23.00
2018-08-28T08:47:58.542Z,22.90
2018-08-28T08:50:27.743Z,23.00
2018-08-28T08:52:56.131Z,23.00
2018-08-28T08:55:24.863Z,23.10
2018-08-28T08:57:53.550Z,23.10
2018-08-28T09:00:22.236Z,23.20
2018-08-28T09:02:51.027Z,23.30
2018-08-28T09:05:19.714Z,23.40
2018-08-28T09:07:48.046Z,23.40
2018-08-28T09:10:16.855Z,23.50
2018-08-28T09:12:45.266Z,23.60
2018-08-28T09:15:24.051Z,23.70
2018-08-28T09:17:52.349Z,23.70
2018-08-28T09:20:20.770Z,23.70
2018-08-28T09:22:49.191Z,23.80
2018-08-28T09:25:17.884Z,23.80
2018-08-28T09:27:46.486Z,24.00
2018-08-28T09:30:14.851Z,24.00
2018-08-28T09:32:43.195Z,24.10
2018-08-28T09:35:11.715Z,24.20
2018-08-28T09:37:40.052Z,24.30
2018-08-28T09:40:08.753Z,24.30
2018-08-28T09:42:37.378Z,24.30
2018-08-28T09:45:06.170Z,24.40
2018-08-28T09:47:34.466Z,24.50
2018-08-28T09:50:02.882Z,24.60
2018-08-28T09:52:31.294Z,24.70
2018-08-28T09:55:00.207Z,24.70
2018-08-28T09:57:28.994Z,24.70
2018-08-28T09:59:57.725Z,24.80
2018-08-28T10:02:26.463Z,24.90
2018-08-28T10:04:54.938Z,25.00
2018-08-28T10:07:23.198Z,25.00
2018-08-28T10:09:51.655Z,25.20
2018-08-28T10:12:20.015Z,25.30
2018-08-28T10:15:33.807Z,25.40
2018-08-28T10:18:02.202Z,25.40
2018-08-28T10:20:31.053Z,25.60
2018-08-28T10:22:59.820Z,25.50
2018-08-28T10:25:28.387Z,25.60
2018-08-28T10:27:56.779Z,25.70
2018-08-28T10:30:25.719Z,25.80
2018-08-28T10:32:54.124Z,25.90
2018-08-28T10:35:22.769Z,26.00
2018-08-28T10:37:51.440Z,26.10
2018-08-28T10:40:20.256Z,26.30
2018-08-28T10:42:48.807Z,26.40
2018-08-28T10:45:17.291Z,26.50
2018-08-28T10:47:45.744Z,26.60
2018-08-28T10:50:14.368Z,26.80
2018-08-28T10:52:42.808Z,27.00
2018-08-28T10:55:11.462Z,27.30
2018-08-28T10:57:40.112Z,28.10
2018-08-28T11:00:09.051Z,29.40
2018-08-28T11:02:37.733Z,30.70
2018-08-28T11:05:06.151Z,31.90
2018-08-28T11:07:34.526Z,33.10
2018-08-28T11:10:03.355Z,33.90
2018-08-28T11:12:31.931Z,34.70
2018-08-28T11:15:44.613Z,35.50
2018-08-28T11:18:12.936Z,36.30
2018-08-28T11:20:41.384Z,37.10
2018-08-28T11:23:09.861Z,37.70
2018-08-28T11:25:38.494Z,38.20
2018-08-28T11:28:06.882Z,38.70
2018-08-28T11:30:35.464Z,39.10
2018-08-28T11:33:04.091Z,39.50
2018-08-28T11:35:32.914Z,40.10
2018-08-28T11:38:01.270Z,40.50
2018-08-28T11:40:29.738Z,40.80
2018-08-28T11:42:58.028Z,41.20
2018-08-28T11:45:26.747Z,41.50
2018-08-28T11:47:55.188Z,41.80
2018-08-28T11:50:23.803Z,42.10
2018-08-28T11:52:52.249Z,42.50
2018-08-28T11:55:20.763Z,42.70
2018-08-28T11:57:49.159Z,43.00
2018-08-28T12:00:17.464Z,43.30
2018-08-28T12:02:46.363Z,43.50
2018-08-28T12:05:14.806Z,43.90
2018-08-28T12:07:43.272Z,44.20
2018-08-28T12:10:11.740Z,44.40
2018-08-28T12:12:40.263Z,44.60
2018-08-28T12:15:55.803Z,44.80
2018-08-28T12:18:24.178Z,45.00
2018-08-28T12:20:52.955Z,45.30
2018-08-28T12:23:21.539Z,45.60
2018-08-28T12:25:50.226Z,45.80
2018-08-28T12:28:18.692Z,46.00
2018-08-28T12:30:47.065Z,46.20
2018-08-28T12:33:15.778Z,46.30
2018-08-28T12:35:44.578Z,46.40
2018-08-28T12:38:13.120Z,46.50
2018-08-28T12:40:41.507Z,46.60
2018-08-28T12:43:10.155Z,46.70
2018-08-28T12:45:38.787Z,46.80
2018-08-28T12:48:07.239Z,46.90
2018-08-28T12:50:35.679Z,47.10
2018-08-28T12:53:04.027Z,47.30
2018-08-28T12:55:32.792Z,47.40
2018-08-28T12:58:01.480Z,47.40
2018-08-28T13:00:29.908Z,47.20
2018-08-28T13:02:58.229Z,46.90
2018-08-28T13:05:26.741Z,47.00
2018-08-28T13:07:55.605Z,47.10
2018-08-28T13:10:24.089Z,47.30
2018-08-28T13:12:52.443Z,47.50
2018-08-28T13:16:07.342Z,47.70
2018-08-28T13:18:35.723Z,47.80
2018-08-28T13:21:04.109Z,48.00
2018-08-28T13:23:32.766Z,48.10
2018-08-28T13:26:01.221Z,48.30
2018-08-28T13:28:29.383Z,48.40
2018-08-28T13:30:57.994Z,48.40
2018-08-28T13:33:26.796Z,48.50
2018-08-28T13:35:55.414Z,48.50
2018-08-28T13:38:24.110Z,48.60
2018-08-28T13:40:52.573Z,48.70
2018-08-28T13:43:20.991Z,48.80
2018-08-28T13:45:49.435Z,48.80
2018-08-28T13:48:17.891Z,48.80
2018-08-28T13:50:46.283Z,48.80
2018-08-28T13:53:14.751Z,48.80
2018-08-28T13:55:43.705Z,48.70
2018-08-28T13:58:12.364Z,48.60
2018-08-28T14:00:40.815Z,48.60
2018-08-28T14:03:09.127Z,48.60
2018-08-28T14:05:37.439Z,48.70
2018-08-28T14:08:05.884Z,48.70
2018-08-28T14:10:34.184Z,48.80
2018-08-28T14:13:02.552Z,48.80
2018-08-28T14:16:20.436Z,48.80
2018-08-28T14:18:49.047Z,48.60
2018-08-28T14:21:17.464Z,48.50
2018-08-28T14:23:46.035Z,48.50
2018-08-28T14:26:15.856Z,48.50
2018-08-28T14:28:44.231Z,48.60
2018-08-28T14:31:14.023Z,48.40
2018-08-28T14:33:42.464Z,48.40
2018-08-28T14:36:12.278Z,48.30
2018-08-28T14:38:40.890Z,48.10
2018-08-28T14:41:09.585Z,48.10
2018-08-28T14:43:38.252Z,48.00
2018-08-28T14:46:07.140Z,47.90
2018-08-28T14:48:35.886Z,47.80
2018-08-28T14:51:04.609Z,47.60
2018-08-28T14:53:33.271Z,47.50
2018-08-28T14:56:01.601Z,47.50
2018-08-28T14:58:29.972Z,47.50
2018-08-28T15:00:58.628Z,47.40
2018-08-28T15:03:27.015Z,47.10
2018-08-28T15:05:55.786Z,47.10
2018-08-28T15:08:24.398Z,46.90
2018-08-28T15:10:52.951Z,46.70
2018-08-28T15:13:21.711Z,46.50
2018-08-28T15:16:33.335Z,46.30
2018-08-28T15:19:01.867Z,46.00
2018-08-28T15:21:30.578Z,45.40
2018-08-28T15:23:59.228Z,44.90
2018-08-28T15:26:27.615Z,44.50
2018-08-28T15:28:56.019Z,43.90
2018-08-28T15:31:24.407Z,43.50
2018-08-28T15:33:53.036Z,43.10
2018-08-28T15:36:21.820Z,42.60
2018-08-28T15:38:50.219Z,42.30
2018-08-28T15:41:18.669Z,41.90
2018-08-28T15:43:47.388Z,41.60
2018-08-28T15:46:17.092Z,41.40
2018-08-28T15:48:45.383Z,41.10
2018-08-28T15:51:15.187Z,40.70
2018-08-28T15:53:43.540Z,40.50
2018-08-28T15:56:11.927Z,40.30
2018-08-28T15:58:40.474Z,40.00
2018-08-28T16:01:09.223Z,39.80
2018-08-28T16:03:37.832Z,39.60
2018-08-28T16:06:06.605Z,39.40
2018-08-28T16:08:35.044Z,39.30
2018-08-28T16:11:03.410Z,39.00
2018-08-28T16:13:32.153Z,38.90
2018-08-28T16:16:44.225Z,38.70
2018-08-28T16:19:12.791Z,38.50
2018-08-28T16:21:57.870Z,38.30
2018-08-28T16:24:26.610Z,38.20
2018-08-28T16:26:55.476Z,38.00
2018-08-28T16:29:23.880Z,37.90
2018-08-28T16:31:52.391Z,37.70
2018-08-28T16:34:20.748Z,37.60
2018-08-28T16:36:49.156Z,37.40
2018-08-28T16:39:17.514Z,37.30
2018-08-28T16:41:45.928Z,37.20
2018-08-28T16:44:14.305Z,37.10
2018-08-28T16:46:42.839Z,36.90
2018-08-28T16:49:11.250Z,36.80
2018-08-28T16:51:39.747Z,36.70
2018-08-28T16:54:08.280Z,36.50
2018-08-28T16:56:36.892Z,36.40
2018-08-28T16:59:05.582Z,36.20
2018-08-28T17:01:34.275Z,36.10
2018-08-28T17:04:02.736Z,36.10
2018-08-28T17:06:31.366Z,36.00
2018-08-28T17:08:59.834Z,35.80
2018-08-28T17:11:28.230Z,35.70
2018-08-28T17:13:56.710Z,35.60
2018-08-28T17:16:59.582Z,35.50
2018-08-28T17:19:28.044Z,35.40
2018-08-28T17:21:56.470Z,35.30
2018-08-28T17:24:25.235Z,35.20
2018-08-28T17:26:53.979Z,35.10
2018-08-28T17:29:22.940Z,35.00
2018-08-28T17:31:51.812Z,34.80
2018-08-28T17:34:20.200Z,34.70
2018-08-28T17:36:49.148Z,34.70
2018-08-28T17:39:17.955Z,34.50
2018-08-28T17:41:46.597Z,34.40
2018-08-28T17:44:15.439Z,34.40
2018-08-28T17:46:44.104Z,34.30
2018-08-28T17:49:13.822Z,34.20
2018-08-28T17:51:42.917Z,34.20
2018-08-28T17:54:11.747Z,34.10
2018-08-28T17:56:41.191Z,34.00
2018-08-28T17:59:10.462Z,33.90
2018-08-28T18:01:39.518Z,33.70
2018-08-28T18:04:09.235Z,33.70
2018-08-28T18:06:38.249Z,33.50
2018-08-28T18:09:07.591Z,33.40
2018-08-28T18:11:36.713Z,33.30
2018-08-28T18:14:06.982Z,33.20
2018-08-28T18:17:09.149Z,33.10
2018-08-28T18:19:38.540Z,33.00
2018-08-28T18:22:07.740Z,32.80
2018-08-28T18:24:37.787Z,32.70
2018-08-28T18:27:07.593Z,32.60
2018-08-28T18:29:37.435Z,32.60
2018-08-28T18:32:06.687Z,32.50
2018-08-28T18:34:36.078Z,32.40
2018-08-28T18:37:05.358Z,32.40
2018-08-28T18:39:35.590Z,32.40
2018-08-28T18:42:05.523Z,32.30
2018-08-28T18:44:35.587Z,32.30
2018-08-28T18:47:05.011Z,32.30
2018-08-28T18:49:34.717Z,32.10
2018-08-28T18:52:04.019Z,32.20
2018-08-28T18:54:33.500Z,32.10
2018-08-28T18:57:03.293Z,32.10
2018-08-28T18:59:33.184Z,32.10
2018-08-28T19:02:02.524Z,32.10
2018-08-28T19:04:31.967Z,32.00
2018-08-28T19:07:01.185Z,31.90
2018-08-28T19:09:31.000Z,31.80
2018-08-28T19:12:01.401Z,31.80
2018-08-28T19:15:03.897Z,31.80
2018-08-28T19:17:34.025Z,31.60
2018-08-28T19:20:03.911Z,31.60
2018-08-28T19:22:33.250Z,31.50
2018-08-28T19:25:02.458Z,31.50
2018-08-28T19:27:32.556Z,31.40
2018-08-28T19:30:01.773Z,31.30
2018-08-28T19:32:31.092Z,31.30
2018-08-28T19:35:01.196Z,31.10
2018-08-28T19:37:30.502Z,31.10
2018-08-28T19:39:59.834Z,31.00
2018-08-28T19:42:29.103Z,31.00
2018-08-28T19:44:58.388Z,31.00
2018-08-28T19:47:27.571Z,30.90
2018-08-28T19:49:56.868Z,30.90
2018-08-28T19:52:26.014Z,30.80
2018-08-28T19:54:55.336Z,30.80
2018-08-28T19:57:25.026Z,30.70
2018-08-28T19:59:54.253Z,30.60
2018-08-28T20:02:24.324Z,30.50
2018-08-28T20:04:53.608Z,30.50
2018-08-28T20:07:23.874Z,30.50
2018-08-28T20:09:53.966Z,30.30
2018-08-28T20:12:23.916Z,30.20
2018-08-28T20:15:23.470Z,30.20
2018-08-28T20:17:53.028Z,30.20
2018-08-28T20:20:23.414Z,30.10
2018-08-28T20:22:52.920Z,30.00
2018-08-28T20:25:44.114Z,30.00
2018-08-28T20:28:24.042Z,29.90
2018-08-28T20:30:53.232Z,29.90
2018-08-28T20:33:22.404Z,29.80
2018-08-28T20:35:52.328Z,29.70
2018-08-28T20:38:21.527Z,29.60
2018-08-28T20:40:50.696Z,29.50
2018-08-28T20:43:19.883Z,29.40
2018-08-28T20:45:49.091Z,29.30
2018-08-28T20:48:18.480Z,29.30
2018-08-28T20:50:47.628Z,29.20
2018-08-28T20:53:16.741Z,29.20
2018-08-28T20:55:45.851Z,29.10
2018-08-28T20:58:15.547Z,29.00
2018-08-28T21:00:45.671Z,28.90
2018-08-28T21:03:14.807Z,28.90
2018-08-28T21:05:44.368Z,28.80
2018-08-28T21:08:13.699Z,28.70
2018-08-28T21:10:42.779Z,28.70
2018-08-28T21:13:11.628Z,28.70
2018-08-28T21:19:11.895Z,28.60
2018-08-28T21:21:40.701Z,28.60
2018-08-28T21:24:09.080Z,28.60
2018-08-28T21:26:37.683Z,28.60
2018-08-28T21:29:06.209Z,28.50
2018-08-28T21:31:34.582Z,28.50
2018-08-28T21:34:03.167Z,28.40
2018-08-28T21:36:31.630Z,28.40
2018-08-28T21:38:59.999Z,28.30
2018-08-28T21:41:28.347Z,28.30
2018-08-28T21:43:57.035Z,28.10
2018-08-28T21:46:25.667Z,28.10
2018-08-28T21:48:54.367Z,28.10
2018-08-28T21:51:22.968Z,28.00
2018-08-28T21:53:51.811Z,28.00
2018-08-28T21:56:20.298Z,28.00
2018-08-28T21:58:48.667Z,27.90
2018-08-28T22:01:17.474Z,27.80
2018-08-28T22:03:46.142Z,27.90
2018-08-28T22:06:20.120Z,27.80
2018-08-28T22:08:48.838Z,27.80
2018-08-28T22:11:18.989Z,27.80
2018-08-28T22:13:47.461Z,27.80
2018-08-28T22:16:17.231Z,27.70
2018-08-28T22:18:45.964Z,27.70
2018-08-28T22:21:15.927Z,27.60
2018-08-28T22:23:44.390Z,27.60
2018-08-28T22:26:13.228Z,27.60
2018-08-28T22:28:41.665Z,27.50
2018-08-28T22:31:10.319Z,27.50
2018-08-28T22:33:39.113Z,27.40
2018-08-28T22:36:07.938Z,27.30
2018-08-28T22:38:36.795Z,27.20
2018-08-28T22:41:05.221Z,27.30
2018-08-28T22:43:33.494Z,27.20
2018-08-28T22:46:01.783Z,27.20
2018-08-28T22:48:30.415Z,27.20
2018-08-28T22:50:58.900Z,27.20
2018-08-28T22:53:27.635Z,27.20
2018-08-28T22:55:56.222Z,27.20
2018-08-28T22:58:24.798Z,27.10
2018-08-28T23:00:53.093Z,27.00
2018-08-28T23:03:21.547Z,26.90
2018-08-28T23:05:50.324Z,26.90
2018-08-28T23:08:18.791Z,26.80
2018-08-28T23:10:47.094Z,26.70
2018-08-28T23:13:15.870Z,26.80
2018-08-28T23:15:44.672Z,26.70
2018-08-28T23:18:13.136Z,26.70
2018-08-28T23:20:41.579Z,26.60
2018-08-28T23:23:10.410Z,26.60
2018-08-28T23:25:38.835Z,26.50
2018-08-28T23:28:07.320Z,26.50
2018-08-28T23:30:35.680Z,26.50
2018-08-28T23:33:04.195Z,26.50
2018-08-28T23:35:32.928Z,26.60
2018-08-28T23:38:01.379Z,26.50
2018-08-28T23:40:30.041Z,26.50
2018-08-28T23:42:58.431Z,26.40
2018-08-28T23:45:26.732Z,26.40
2018-08-28T23:47:55.311Z,26.40
2018-08-28T23:50:23.830Z,26.40
2018-08-28T23:52:52.671Z,26.30
2018-08-28T23:55:21.187Z,26.30
2018-08-28T23:57:49.915Z,26.30
